sensor_id;sensor_type;location;lat;lon;timestamp;pressure;altitude;pressure_sealevel;temperature;humidity
75640;BME280;64233;51.486;6.332;2023-03-20T00:01:28;101659.38;;;7.02;100.00
75640;BME280;64233;51.486;6.332;2023-03-20T00:03:54;101657.94;;;7.00;100.00
75640;BME280;64233;51.486;6.332;2023-03-20T00:06:24;101658.13;;;6.98;100.00
75640;BME280;64233;51.486;6.332;2023-03-20T00:08:52;101663.06;;;7.01;100.00
75640;BME280;64233;51.486;6.332;2023-03-20T00:14:00;101677.44;;;6.94;100.00
75640;BME280;64233;51.486;6.332;2023-03-20T00:16:32;101677.88;;;6.91;100.00
75640;BME280;64233;51.486;6.332;2023-03-20T00:18:58;101677.03;;;6.90;100.00
75640;BME280;64233;51.486;6.332;2023-03-20T00:21:23;101670.25;;;6.87;100.00
75640;BME280;64233;51.486;6.332;2023-03-20T00:23:49;101675.56;;;6.87;100.00
75640;BME280;64233;51.486;6.332;2023-03-20T00:26:15;101682.56;;;6.88;100.00
75640;BME280;64233;51.486;6.332;2023-03-20T00:28:44;101675.19;;;6.91;100.00
75640;BME280;64233;51.486;6.332;2023-03-20T00:31:30;101668.41;;;6.88;100.00
75640;BME280;64233;51.486;6.332;2023-03-20T00:33:58;101652.78;;;6.92;100.00
75640;BME280;64233;51.486;6.332;2023-03-20T00:36:25;101653.63;;;6.85;100.00
75640;BME280;64233;51.486;6.332;2023-03-20T00:38:50;101653.03;;;6.83;100.00
75640;BME280;64233;51.486;6.332;2023-03-20T00:41:26;101670.66;;;6.84;100.00
75640;BME280;64233;51.486;6.332;2023-03-20T00:43:58;101659.97;;;6.84;100.00
75640;BME280;64233;51.486;6.332;2023-03-20T00:46:25;101651.97;;;6.84;100.00
75640;BME280;64233;51.486;6.332;2023-03-20T00:48:51;101659.97;;;6.84;100.00
75640;BME280;64233;51.486;6.332;2023-03-20T00:51:17;101654.03;;;6.82;100.00
75640;BME280;64233;51.486;6.332;2023-03-20T00:53:42;101658.34;;;6.83;100.00
75640;BME280;64233;51.486;6.332;2023-03-20T00:56:25;101651.38;;;6.82;100.00
75640;BME280;64233;51.486;6.332;2023-03-20T00:58:52;101649.50;;;6.83;100.00
75640;BME280;64233;51.486;6.332;2023-03-20T01:01:18;101651.56;;;6.81;100.00
75640;BME280;64233;51.486;6.332;2023-03-20T01:03:44;101649.72;;;6.81;100.00
75640;BME280;64233;51.486;6.332;2023-03-20T01:06:11;101643.56;;;6.81;100.00
75640;BME280;64233;51.486;6.332;2023-03-20T01:08:36;101634.50;;;6.82;100.00
75640;BME280;64233;51.486;6.332;2023-03-20T01:11:01;101635.13;;;6.77;100.00
75640;BME280;64233;51.486;6.332;2023-03-20T01:13:29;101636.34;;;6.75;100.00
75640;BME280;64233;51.486;6.332;2023-03-20T01:15:56;101635.97;;;6.78;100.00
75640;BME280;64233;51.486;6.332;2023-03-20T01:18:26;101627.56;;;6.81;100.00
75640;BME280;64233;51.486;6.332;2023-03-20T01:20:51;101623.66;;;6.77;100.00
75640;BME280;64233;51.486;6.332;2023-03-20T01:23:18;101625.69;;;6.75;100.00
75640;BME280;64233;51.486;6.332;2023-03-20T01:25:44;101624.66;;;6.69;100.00
75640;BME280;64233;51.486;6.332;2023-03-20T01:28:13;101622.59;;;6.64;100.00
75640;BME280;64233;51.486;6.332;2023-03-20T01:30:39;101626.28;;;6.63;100.00
75640;BME280;64233;51.486;6.332;2023-03-20T01:33:11;101621.16;;;6.62;100.00
75640;BME280;64233;51.486;6.332;2023-03-20T01:35:38;101627.91;;;6.58;100.00
75640;BME280;64233;51.486;6.332;2023-03-20T01:38:10;101627.91;;;6.58;100.00
75640;BME280;64233;51.486;6.332;2023-03-20T01:40:43;101626.09;;;6.58;100.00
75640;BME280;64233;51.486;6.332;2023-03-20T01:43:15;101638.81;;;6.63;100.00
75640;BME280;64233;51.486;6.332;2023-03-20T01:51:23;101663.44;;;6.65;100.00
75640;BME280;64233;51.486;6.332;2023-03-20T01:54:01;101665.28;;;6.64;100.00
75640;BME280;64233;51.486;6.332;2023-03-20T01:56:31;101662.03;;;6.62;100.00
75640;BME280;64233;51.486;6.332;2023-03-20T01:59:09;101651.94;;;6.64;100.00
75640;BME280;64233;51.486;6.332;2023-03-20T02:01:37;101650.31;;;6.63;100.00
75640;BME280;64233;51.486;6.332;2023-03-20T02:04:04;101646.81;;;6.63;100.00
75640;BME280;64233;51.486;6.332;2023-03-20T02:06:30;101650.50;;;6.62;100.00
75640;BME280;64233;51.486;6.332;2023-03-20T02:08:56;101644.16;;;6.63;100.00
75640;BME280;64233;51.486;6.332;2023-03-20T02:11:23;101652.56;;;6.60;100.00
75640;BME280;64233;51.486;6.332;2023-03-20T02:13:54;101663.66;;;6.57;100.00
75640;BME280;64233;51.486;6.332;2023-03-20T02:16:21;101666.13;;;6.58;100.00
75640;BME280;64233;51.486;6.332;2023-03-20T02:18:48;101668.97;;;6.57;100.00
75640;BME280;64233;51.486;6.332;2023-03-20T02:30:01;101664.22;;;6.52;100.00
75640;BME280;64233;51.486;6.332;2023-03-20T02:41:32;101654.59;;;6.51;100.00
75640;BME280;64233;51.486;6.332;2023-03-20T02:44:42;101650.91;;;6.52;100.00
75640;BME280;64233;51.486;6.332;2023-03-20T02:47:10;101635.09;;;6.44;100.00
75640;BME280;64233;51.486;6.332;2023-03-20T02:55:30;101630.53;;;6.24;100.00
75640;BME280;64233;51.486;6.332;2023-03-20T03:00:43;101620.66;;;6.18;100.00
75640;BME280;64233;51.486;6.332;2023-03-20T03:03:19;101620.22;;;6.08;100.00
75640;BME280;64233;51.486;6.332;2023-03-20T03:05:50;101631.25;;;5.98;100.00
75640;BME280;64233;51.486;6.332;2023-03-20T03:08:19;101649.63;;;5.86;100.00
75640;BME280;64233;51.486;6.332;2023-03-20T03:11:00;101650.03;;;5.83;100.00
75640;BME280;64233;51.486;6.332;2023-03-20T03:13:28;101658.28;;;5.95;100.00
75640;BME280;64233;51.486;6.332;2023-03-20T03:15:59;101663.06;;;6.06;100.00
75640;BME280;64233;51.486;6.332;2023-03-20T03:18:28;101653.66;;;6.10;100.00
75640;BME280;64233;51.486;6.332;2023-03-20T03:20:58;101659.44;;;6.14;100.00
75640;BME280;64233;51.486;6.332;2023-03-20T03:23:29;101660.25;;;6.14;100.00
75640;BME280;64233;51.486;6.332;2023-03-20T03:25:57;101648.94;;;6.12;100.00
75640;BME280;64233;51.486;6.332;2023-03-20T03:28:41;101635.63;;;6.19;100.00
75640;BME280;64233;51.486;6.332;2023-03-20T03:31:11;101632.13;;;6.12;100.00
75640;BME280;64233;51.486;6.332;2023-03-20T03:33:40;101640.53;;;6.09;100.00
75640;BME280;64233;51.486;6.332;2023-03-20T03:36:12;101624.50;;;6.02;100.00
75640;BME280;64233;51.486;6.332;2023-03-20T03:38:53;101638.25;;;5.99;100.00
75640;BME280;64233;51.486;6.332;2023-03-20T03:41:29;101643.09;;;5.95;100.00
75640;BME280;64233;51.486;6.332;2023-03-20T03:46:41;101643.09;;;5.89;100.00
75640;BME280;64233;51.486;6.332;2023-03-20T03:49:14;101640.44;;;5.89;100.00
75640;BME280;64233;51.486;6.332;2023-03-20T03:51:43;101643.50;;;5.85;100.00
75640;BME280;64233;51.486;6.332;2023-03-20T03:54:19;101623.78;;;5.80;100.00
75640;BME280;64233;51.486;6.332;2023-03-20T03:56:47;101618.47;;;5.80;100.00
75640;BME280;64233;51.486;6.332;2023-03-20T03:59:24;101621.34;;;5.85;100.00
75640;BME280;64233;51.486;6.332;2023-03-20T04:01:51;101616.41;;;5.82;100.00
75640;BME280;64233;51.486;6.332;2023-03-20T04:04:19;101597.50;;;5.77;100.00
75640;BME280;64233;51.486;6.332;2023-03-20T04:06:46;101607.56;;;5.75;100.00
75640;BME280;64233;51.486;6.332;2023-03-20T04:09:11;101602.63;;;5.72;100.00
75640;BME280;64233;51.486;6.332;2023-03-20T04:11:36;101612.44;;;5.71;100.00
75640;BME280;64233;51.486;6.332;2023-03-20T04:14:02;101608.16;;;5.70;100.00
75640;BME280;64233;51.486;6.332;2023-03-20T04:16:28;101614.06;;;5.65;100.00
75640;BME280;64233;51.486;6.332;2023-03-20T04:18:53;101603.81;;;5.62;100.00
75640;BME280;64233;51.486;6.332;2023-03-20T04:21:20;101606.91;;;5.66;100.00
75640;BME280;64233;51.486;6.332;2023-03-20T04:23:46;101593.59;;;5.66;100.00
75640;BME280;64233;51.486;6.332;2023-03-20T04:26:11;101596.66;;;5.63;100.00
75640;BME280;64233;51.486;6.332;2023-03-20T04:28:37;101600.72;;;5.59;100.00
75640;BME280;64233;51.486;6.332;2023-03-20T04:31:02;101609.72;;;5.58;100.00
75640;BME280;64233;51.486;6.332;2023-03-20T04:33:28;101622.00;;;5.52;100.00
75640;BME280;64233;51.486;6.332;2023-03-20T04:35:54;101616.47;;;5.54;100.00
75640;BME280;64233;51.486;6.332;2023-03-20T04:38:20;101616.03;;;5.50;100.00
75640;BME280;64233;51.486;6.332;2023-03-20T04:40:47;101613.59;;;5.55;100.00
75640;BME280;64233;51.486;6.332;2023-03-20T04:43:13;101608.47;;;5.54;100.00
75640;BME280;64233;51.486;6.332;2023-03-20T04:45:39;101620.53;;;5.49;100.00
75640;BME280;64233;51.486;6.332;2023-03-20T04:48:05;101605.56;;;5.48;100.00
75640;BME280;64233;51.486;6.332;2023-03-20T04:50:30;101603.50;;;5.44;100.00
75640;BME280;64233;51.486;6.332;2023-03-20T04:52:56;101596.53;;;5.43;100.00
75640;BME280;64233;51.486;6.332;2023-03-20T04:55:21;101593.25;;;5.41;100.00
75640;BME280;64233;51.486;6.332;2023-03-20T04:57:47;101594.91;;;5.42;100.00
75640;BME280;64233;51.486;6.332;2023-03-20T05:00:13;101601.03;;;5.42;100.00
75640;BME280;64233;51.486;6.332;2023-03-20T05:02:38;101593.44;;;5.39;100.00
75640;BME280;64233;51.486;6.332;2023-03-20T05:05:04;101602.84;;;5.35;100.00
75640;BME280;64233;51.486;6.332;2023-03-20T05:07:30;101602.44;;;5.38;100.00
75640;BME280;64233;51.486;6.332;2023-03-20T05:09:55;101598.13;;;5.37;100.00
75640;BME280;64233;51.486;6.332;2023-03-20T05:12:20;101607.16;;;5.36;100.00
75640;BME280;64233;51.486;6.332;2023-03-20T05:14:46;101601.41;;;5.32;100.00
75640;BME280;64233;51.486;6.332;2023-03-20T05:17:12;101589.28;;;5.30;100.00
75640;BME280;64233;51.486;6.332;2023-03-20T05:19:37;101596.84;;;5.26;100.00
75640;BME280;64233;51.486;6.332;2023-03-20T05:22:03;101587.41;;;5.24;100.00
75640;BME280;64233;51.486;6.332;2023-03-20T05:24:28;101586.97;;;5.20;100.00
75640;BME280;64233;51.486;6.332;2023-03-20T05:26:54;101589.63;;;5.20;100.00
75640;BME280;64233;51.486;6.332;2023-03-20T05:29:19;101591.22;;;5.14;100.00
75640;BME280;64233;51.486;6.332;2023-03-20T05:31:45;101595.56;;;5.15;100.00
75640;BME280;64233;51.486;6.332;2023-03-20T05:34:10;101601.28;;;5.12;100.00
75640;BME280;64233;51.486;6.332;2023-03-20T05:36:36;101593.28;;;5.12;100.00
75640;BME280;64233;51.486;6.332;2023-03-20T05:39:01;101594.53;;;5.16;100.00
75640;BME280;64233;51.486;6.332;2023-03-20T05:41:26;101603.13;;;5.12;100.00
75640;BME280;64233;51.486;6.332;2023-03-20T05:43:51;101605.59;;;5.20;100.00
75640;BME280;64233;51.486;6.332;2023-03-20T05:46:17;101607.91;;;5.23;100.00
75640;BME280;64233;51.486;6.332;2023-03-20T05:48:42;101600.88;;;5.15;100.00
75640;BME280;64233;51.486;6.332;2023-03-20T05:51:07;101607.84;;;5.16;100.00
75640;BME280;64233;51.486;6.332;2023-03-20T05:53:33;101607.84;;;5.16;100.00
75640;BME280;64233;51.486;6.332;2023-03-20T05:55:58;101602.72;;;5.15;100.00
75640;BME280;64233;51.486;6.332;2023-03-20T05:58:23;101600.06;;;5.15;100.00
75640;BME280;64233;51.486;6.332;2023-03-20T06:00:48;101603.53;;;5.15;100.00
75640;BME280;64233;51.486;6.332;2023-03-20T06:03:14;101596.75;;;5.13;100.00
75640;BME280;64233;51.486;6.332;2023-03-20T06:05:39;101602.34;;;5.18;100.00
75640;BME280;64233;51.486;6.332;2023-03-20T06:08:05;101602.53;;;5.16;100.00
75640;BME280;64233;51.486;6.332;2023-03-20T06:10:31;101602.13;;;5.20;100.00
75640;BME280;64233;51.486;6.332;2023-03-20T06:12:57;101605.00;;;5.18;100.00
75640;BME280;64233;51.486;6.332;2023-03-20T06:15:25;101608.28;;;5.20;100.00
75640;BME280;64233;51.486;6.332;2023-03-20T06:17:50;101611.78;;;5.21;100.00
75640;BME280;64233;51.486;6.332;2023-03-20T06:20:16;101609.72;;;5.23;100.00
75640;BME280;64233;51.486;6.332;2023-03-20T06:22:41;101625.13;;;5.27;100.00
75640;BME280;64233;51.486;6.332;2023-03-20T06:25:07;101626.34;;;5.25;100.00
75640;BME280;64233;51.486;6.332;2023-03-20T06:27:32;101623.28;;;5.28;100.00
75640;BME280;64233;51.486;6.332;2023-03-20T06:29:58;101622.47;;;5.27;100.00
75640;BME280;64233;51.486;6.332;2023-03-20T06:32:23;101627.00;;;5.33;100.00
75640;BME280;64233;51.486;6.332;2023-03-20T06:34:48;101626.56;;;5.30;100.00
75640;BME280;64233;51.486;6.332;2023-03-20T06:37:14;101631.94;;;5.37;100.00
75640;BME280;64233;51.486;6.332;2023-03-20T06:39:39;101631.13;;;5.36;100.00
75640;BME280;64233;51.486;6.332;2023-03-20T06:42:05;101637.47;;;5.35;100.00
75640;BME280;64233;51.486;6.332;2023-03-20T06:44:31;101638.53;;;5.41;100.00
75640;BME280;64233;51.486;6.332;2023-03-20T06:46:56;101646.75;;;5.46;100.00
75640;BME280;64233;51.486;6.332;2023-03-20T06:49:21;101647.16;;;5.49;100.00
75640;BME280;64233;51.486;6.332;2023-03-20T06:51:47;101650.84;;;5.48;100.00
75640;BME280;64233;51.486;6.332;2023-03-20T06:54:12;101646.78;;;5.52;100.00
75640;BME280;64233;51.486;6.332;2023-03-20T06:56:38;101648.03;;;5.57;100.00
75640;BME280;64233;51.486;6.332;2023-03-20T06:59:03;101646.81;;;5.59;100.00
75640;BME280;64233;51.486;6.332;2023-03-20T07:01:36;101655.44;;;5.61;100.00
75640;BME280;64233;51.486;6.332;2023-03-20T07:04:08;101661.06;;;5.73;100.00
75640;BME280;64233;51.486;6.332;2023-03-20T07:06:33;101657.38;;;5.74;100.00
75640;BME280;64233;51.486;6.332;2023-03-20T07:08:59;101649.19;;;5.76;100.00
75640;BME280;64233;51.486;6.332;2023-03-20T07:11:25;101656.56;;;5.80;100.00
75640;BME280;64233;51.486;6.332;2023-03-20T07:13:51;101658.25;;;5.88;100.00
75640;BME280;64233;51.486;6.332;2023-03-20T07:16:16;101658.25;;;5.88;100.00
75640;BME280;64233;51.486;6.332;2023-03-20T07:18:41;101665.50;;;6.01;100.00
75640;BME280;64233;51.486;6.332;2023-03-20T07:21:07;101666.91;;;5.97;100.00
75640;BME280;64233;51.486;6.332;2023-03-20T07:23:33;101665.91;;;5.98;100.00
75640;BME280;64233;51.486;6.332;2023-03-20T07:25:59;101666.94;;;6.03;100.00
75640;BME280;64233;51.486;6.332;2023-03-20T07:28:24;101668.59;;;6.05;100.00
75640;BME280;64233;51.486;6.332;2023-03-20T07:30:50;101668.81;;;6.03;100.00
75640;BME280;64233;51.486;6.332;2023-03-20T07:33:15;101669.81;;;6.02;100.00
75640;BME280;64233;51.486;6.332;2023-03-20T07:35:40;101665.13;;;6.11;100.00
75640;BME280;64233;51.486;6.332;2023-03-20T07:38:06;101676.84;;;6.16;100.00
75640;BME280;64233;51.486;6.332;2023-03-20T07:40:32;101675.66;;;6.26;100.00
75640;BME280;64233;51.486;6.332;2023-03-20T07:42:57;101664.59;;;6.29;100.00
75640;BME280;64233;51.486;6.332;2023-03-20T07:45:23;101668.75;;;6.38;100.00
75640;BME280;64233;51.486;6.332;2023-03-20T07:47:48;101673.06;;;6.46;100.00
75640;BME280;64233;51.486;6.332;2023-03-20T07:50:15;101662.59;;;6.44;100.00
75640;BME280;64233;51.486;6.332;2023-03-20T07:52:45;101666.28;;;6.43;100.00
75640;BME280;64233;51.486;6.332;2023-03-20T07:55:10;101679.22;;;6.53;100.00
75640;BME280;64233;51.486;6.332;2023-03-20T07:57:35;101674.31;;;6.63;100.00
75640;BME280;64233;51.486;6.332;2023-03-20T08:00:01;101668.56;;;6.60;100.00
75640;BME280;64233;51.486;6.332;2023-03-20T08:02:26;101672.91;;;6.61;100.00
75640;BME280;64233;51.486;6.332;2023-03-20T08:04:53;101673.94;;;6.66;100.00
75640;BME280;64233;51.486;6.332;2023-03-20T08:07:18;101678.03;;;6.62;100.00
75640;BME280;64233;51.486;6.332;2023-03-20T08:09:43;101678.22;;;6.61;100.00
75640;BME280;64233;51.486;6.332;2023-03-20T08:12:08;101678.22;;;6.61;100.00
75640;BME280;64233;51.486;6.332;2023-03-20T08:14:34;101683.34;;;6.55;100.00
75640;BME280;64233;51.486;6.332;2023-03-20T08:16:59;101680.06;;;6.53;100.00
75640;BME280;64233;51.486;6.332;2023-03-20T08:19:25;101683.78;;;6.59;100.00
75640;BME280;64233;51.486;6.332;2023-03-20T08:21:50;101685.41;;;6.67;100.00
75640;BME280;64233;51.486;6.332;2023-03-20T08:24:16;101687.66;;;6.70;100.00
75640;BME280;64233;51.486;6.332;2023-03-20T08:26:41;101688.28;;;6.65;100.00
75640;BME280;64233;51.486;6.332;2023-03-20T08:29:08;101677.63;;;6.79;100.00
75640;BME280;64233;51.486;6.332;2023-03-20T08:31:33;101689.75;;;6.88;100.00
75640;BME280;64233;51.486;6.332;2023-03-20T08:33:58;101687.28;;;6.86;100.00
75640;BME280;64233;51.486;6.332;2023-03-20T08:36:24;101692.63;;;6.80;100.00
75640;BME280;64233;51.486;6.332;2023-03-20T08:38:49;101693.44;;;6.80;99.45
75640;BME280;64233;51.486;6.332;2023-03-20T08:41:15;101682.16;;;6.85;99.69
75640;BME280;64233;51.486;6.332;2023-03-20T08:43:41;101669.03;;;6.83;98.78
75640;BME280;64233;51.486;6.332;2023-03-20T08:46:06;101687.50;;;6.92;99.28
75640;BME280;64233;51.486;6.332;2023-03-20T08:48:32;101679.50;;;6.98;100.00
75640;BME280;64233;51.486;6.332;2023-03-20T08:50:57;101678.88;;;6.89;97.94
75640;BME280;64233;51.486;6.332;2023-03-20T08:53:23;101683.59;;;6.87;96.81
75640;BME280;64233;51.486;6.332;2023-03-20T08:55:52;101679.91;;;6.88;96.40
75640;BME280;64233;51.486;6.332;2023-03-20T08:58:18;101683.81;;;6.99;98.13
75640;BME280;64233;51.486;6.332;2023-03-20T09:00:44;101681.53;;;7.03;97.94
75640;BME280;64233;51.486;6.332;2023-03-20T09:03:14;101674.97;;;6.99;97.39
75640;BME280;64233;51.486;6.332;2023-03-20T09:05:47;101672.53;;;7.04;96.73
75640;BME280;64233;51.486;6.332;2023-03-20T09:08:20;101681.16;;;7.06;96.95
75640;BME280;64233;51.486;6.332;2023-03-20T09:10:46;101680.72;;;7.02;96.47
75640;BME280;64233;51.486;6.332;2023-03-20T09:13:12;101681.78;;;7.15;97.10
75640;BME280;64233;51.486;6.332;2023-03-20T09:15:38;101684.84;;;7.18;97.46
75640;BME280;64233;51.486;6.332;2023-03-20T09:18:03;101680.75;;;7.09;96.18
75640;BME280;64233;51.486;6.332;2023-03-20T09:20:28;101681.34;;;7.11;96.08
75640;BME280;64233;51.486;6.332;2023-03-20T09:22:55;101675.81;;;7.13;96.16
75640;BME280;64233;51.486;6.332;2023-03-20T09:25:20;101677.44;;;7.07;95.72
75640;BME280;64233;51.486;6.332;2023-03-20T09:27:45;101681.34;;;7.11;96.22
75640;BME280;64233;51.486;6.332;2023-03-20T09:30:12;101677.44;;;7.07;94.68
75640;BME280;64233;51.486;6.332;2023-03-20T09:32:37;101677.44;;;7.14;95.27
75640;BME280;64233;51.486;6.332;2023-03-20T09:35:03;101679.50;;;7.12;95.14
75640;BME280;64233;51.486;6.332;2023-03-20T09:37:28;101675.00;;;7.12;95.06
75640;BME280;64233;51.486;6.332;2023-03-20T09:39:54;101678.66;;;7.31;96.83
75640;BME280;64233;51.486;6.332;2023-03-20T09:42:41;101679.72;;;7.23;95.67
75640;BME280;64233;51.486;6.332;2023-03-20T09:48:27;101690.78;;;7.40;97.72
75640;BME280;64233;51.486;6.332;2023-03-20T09:51:17;101691.41;;;7.43;97.56
75640;BME280;64233;51.486;6.332;2023-03-20T09:53:53;101693.47;;;7.34;96.30
75640;BME280;64233;51.486;6.332;2023-03-20T09:56:24;101685.88;;;7.24;94.71
75640;BME280;64233;51.486;6.332;2023-03-20T09:58:58;101689.94;;;7.47;97.33
75640;BME280;64233;51.486;6.332;2023-03-20T10:01:37;101693.66;;;7.32;96.30
75640;BME280;64233;51.486;6.332;2023-03-20T10:04:08;101691.63;;;7.28;95.71
75640;BME280;64233;51.486;6.332;2023-03-20T10:06:34;101690.81;;;7.20;94.87
75640;BME280;64233;51.486;6.332;2023-03-20T10:08:59;101696.75;;;7.29;94.93
75640;BME280;64233;51.486;6.332;2023-03-20T10:11:53;101697.78;;;7.35;96.38
75640;BME280;64233;51.486;6.332;2023-03-20T10:14:49;101681.75;;;7.21;95.31
75640;BME280;64233;51.486;6.332;2023-03-20T10:17:25;101677.03;;;7.10;95.30
75640;BME280;64233;51.486;6.332;2023-03-20T10:20:03;101685.47;;;7.00;95.56
75640;BME280;64233;51.486;6.332;2023-03-20T10:22:38;101680.31;;;6.99;96.11
75640;BME280;64233;51.486;6.332;2023-03-20T10:27:48;101688.13;;;7.14;97.98
75640;BME280;64233;51.486;6.332;2023-03-20T10:30:31;101672.94;;;7.07;96.97
75640;BME280;64233;51.486;6.332;2023-03-20T10:36:09;101677.44;;;7.14;98.17
75640;BME280;64233;51.486;6.332;2023-03-20T10:41:15;101671.91;;;6.95;97.81
75640;BME280;64233;51.486;6.332;2023-03-20T10:43:43;101667.19;;;6.91;97.43
75640;BME280;64233;51.486;6.332;2023-03-20T10:46:28;101671.88;;;6.88;99.33
75640;BME280;64233;51.486;6.332;2023-03-20T10:49:02;101675.19;;;6.97;100.00
75640;BME280;64233;51.486;6.332;2023-03-20T10:51:46;101670.47;;;6.99;99.74
75640;BME280;64233;51.486;6.332;2023-03-20T10:56:47;101669.44;;;7.07;98.01
75640;BME280;64233;51.486;6.332;2023-03-20T10:59:33;101671.09;;;7.08;97.67
75640;BME280;64233;51.486;6.332;2023-03-20T11:02:00;101667.56;;;7.14;98.51
75640;BME280;64233;51.486;6.332;2023-03-20T11:04:26;101654.66;;;6.98;97.78
75640;BME280;64233;51.486;6.332;2023-03-20T11:07:00;101669.22;;;7.15;99.65
75640;BME280;64233;51.486;6.332;2023-03-20T11:09:27;101674.16;;;7.18;99.36
75640;BME280;64233;51.486;6.332;2023-03-20T11:11:56;101657.13;;;7.06;98.82
75640;BME280;64233;51.486;6.332;2023-03-20T11:14:25;101660.63;;;7.06;99.55
75640;BME280;64233;51.486;6.332;2023-03-20T11:16:55;101665.13;;;7.13;99.80
75640;BME280;64233;51.486;6.332;2023-03-20T11:19:24;101668.22;;;7.23;100.00
75640;BME280;64233;51.486;6.332;2023-03-20T11:21:56;101668.84;;;7.12;100.00
75640;BME280;64233;51.486;6.332;2023-03-20T11:24:40;101663.50;;;7.05;100.00
75640;BME280;64233;51.486;6.332;2023-03-20T11:27:09;101669.03;;;6.97;100.00
75640;BME280;64233;51.486;6.332;2023-03-20T11:29:35;101668.00;;;6.91;100.00
75640;BME280;64233;51.486;6.332;2023-03-20T11:32:07;101665.72;;;7.01;100.00
75640;BME280;64233;51.486;6.332;2023-03-20T11:34:40;101664.91;;;6.94;99.64
75640;BME280;64233;51.486;6.332;2023-03-20T11:37:21;101660.59;;;6.93;99.75
75640;BME280;64233;51.486;6.332;2023-03-20T11:43:12;101658.16;;;6.85;99.66
75640;BME280;64233;51.486;6.332;2023-03-20T11:45:40;101664.28;;;6.99;100.00
75640;BME280;64233;51.486;6.332;2023-03-20T11:48:15;101671.28;;;6.93;100.00
75640;BME280;64233;51.486;6.332;2023-03-20T11:50:45;101665.31;;;6.84;100.00
75640;BME280;64233;51.486;6.332;2023-03-20T11:53:22;101651.97;;;6.91;100.00
75640;BME280;64233;51.486;6.332;2023-03-20T11:56:11;101655.06;;;6.95;100.00
75640;BME280;64233;51.486;6.332;2023-03-20T12:01:40;101647.88;;;7.29;100.00
75640;BME280;64233;51.486;6.332;2023-03-20T12:09:26;101637.78;;;7.31;100.00
75640;BME280;64233;51.486;6.332;2023-03-20T12:11:58;101629.56;;;7.26;100.00
75640;BME280;64233;51.486;6.332;2023-03-20T12:17:00;101639.19;;;7.53;100.00
75640;BME280;64233;51.486;6.332;2023-03-20T12:19:29;101636.66;;;7.72;100.00
75640;BME280;64233;51.486;6.332;2023-03-20T12:22:14;101633.47;;;7.30;100.00
75640;BME280;64233;51.486;6.332;2023-03-20T12:24:56;101627.91;;;7.31;100.00
75640;BME280;64233;51.486;6.332;2023-03-20T12:27:35;101621.81;;;7.17;100.00
75640;BME280;64233;51.486;6.332;2023-03-20T12:30:18;101631.84;;;7.22;100.00
75640;BME280;64233;51.486;6.332;2023-03-20T12:32:54;101624.22;;;7.26;100.00
75640;BME280;64233;51.486;6.332;2023-03-20T12:35:30;101618.28;;;7.23;100.00
75640;BME280;64233;51.486;6.332;2023-03-20T12:37:56;101621.13;;;7.42;100.00
75640;BME280;64233;51.486;6.332;2023-03-20T12:40:45;101611.69;;;7.39;100.00
75640;BME280;64233;51.486;6.332;2023-03-20T12:43:15;101607.34;;;7.45;100.00
75640;BME280;64233;51.486;6.332;2023-03-20T12:45:53;101605.03;;;7.69;100.00
75640;BME280;64233;51.486;6.332;2023-03-20T12:54:55;101590.03;;;7.68;98.42
75640;BME280;64233;51.486;6.332;2023-03-20T12:57:04;101580.81;;;7.57;96.90
75640;BME280;64233;51.486;6.332;2023-03-20T13:11:28;101595.81;;;8.03;97.29
75640;BME280;64233;51.486;6.332;2023-03-20T13:14:03;101597.69;;;8.03;97.35
75640;BME280;64233;51.486;6.332;2023-03-20T13:16:47;101597.38;;;8.18;98.31
75640;BME280;64233;51.486;6.332;2023-03-20T13:19:24;101585.63;;;7.87;96.99
75640;BME280;64233;51.486;6.332;2023-03-20T13:24:39;101580.75;;;7.77;98.11
75640;BME280;64233;51.486;6.332;2023-03-20T13:27:13;101581.56;;;7.78;98.20
75640;BME280;64233;51.486;6.332;2023-03-20T13:32:49;101578.84;;;7.91;99.66
75640;BME280;64233;51.486;6.332;2023-03-20T13:37:53;101563.75;;;7.97;99.04
75640;BME280;64233;51.486;6.332;2023-03-20T13:40:29;101569.16;;;7.90;98.12
75640;BME280;64233;51.486;6.332;2023-03-20T13:43:03;101573.00;;;8.01;99.20
75640;BME280;64233;51.486;6.332;2023-03-20T13:45:33;101573.00;;;8.01;98.45
75640;BME280;64233;51.486;6.332;2023-03-20T13:48:08;101568.31;;;7.96;97.64
75640;BME280;64233;51.486;6.332;2023-03-20T13:50:48;101573.50;;;8.23;98.85
75640;BME280;64233;51.486;6.332;2023-03-20T13:53:24;101571.72;;;8.10;97.46
75640;BME280;64233;51.486;6.332;2023-03-20T13:56:52;101560.53;;;8.26;98.25
75640;BME280;64233;51.486;6.332;2023-03-20T14:02:19;101549.53;;;8.35;97.74
75640;BME280;64233;51.486;6.332;2023-03-20T14:04:50;101554.34;;;8.26;97.25
75640;BME280;64233;51.486;6.332;2023-03-20T14:07:36;101552.88;;;8.30;97.82
75640;BME280;64233;51.486;6.332;2023-03-20T14:12:57;101549.22;;;8.24;96.57
75640;BME280;64233;51.486;6.332;2023-03-20T14:15:51;101554.13;;;8.27;96.69
75640;BME280;64233;51.486;6.332;2023-03-20T14:18:21;101552.91;;;8.23;96.59
75640;BME280;64233;51.486;6.332;2023-03-20T14:20:55;101551.84;;;8.31;97.38
75640;BME280;64233;51.486;6.332;2023-03-20T14:23:32;101537.81;;;8.36;98.13
75640;BME280;64233;51.486;6.332;2023-03-20T14:25:58;101548.72;;;8.34;98.24
75640;BME280;64233;51.486;6.332;2023-03-20T14:28:28;101548.06;;;8.39;97.85
75640;BME280;64233;51.486;6.332;2023-03-20T14:31:31;101546.59;;;8.43;97.67
75640;BME280;64233;51.486;6.332;2023-03-20T14:36:58;101545.38;;;8.46;99.16
75640;BME280;64233;51.486;6.332;2023-03-20T14:45:01;101530.59;;;8.36;99.46
75640;BME280;64233;51.486;6.332;2023-03-20T14:50:18;101525.06;;;8.38;98.91
75640;BME280;64233;51.486;6.332;2023-03-20T14:55:31;101522.13;;;8.46;98.91
75640;BME280;64233;51.486;6.332;2023-03-20T14:58:04;101517.19;;;8.43;98.18